sensor_id;sensor_type;location;lat;lon;timestamp;pressure;altitude;pressure_sealevel;temperature;humidity
28927;BME280;16038;47.692;9.400;2023-05-10T00:00:34;96115.41;;;13.00;100.00
28927;BME280;16038;47.692;9.400;2023-05-10T00:03:00;96114.19;;;13.05;100.00
28927;BME280;16038;47.692;9.400;2023-05-10T00:05:25;96111.84;;;12.96;100.00
28927;BME280;16038;47.692;9.400;2023-05-10T00:07:50;96117.38;;;12.89;100.00
28927;BME280;16038;47.692;9.400;2023-05-10T00:10:16;96121.69;;;12.97;100.00
28927;BME280;16038;47.692;9.400;2023-05-10T00:12:41;96115.81;;;12.88;100.00
28927;BME280;16038;47.692;9.400;2023-05-10T00:15:07;96115.81;;;12.84;100.00
28927;BME280;16038;47.692;9.400;2023-05-10T00:17:32;96115.84;;;12.73;100.00
28927;BME280;16038;47.692;9.400;2023-05-10T00:19:57;96116.22;;;12.79;100.00
28927;BME280;16038;47.692;9.400;2023-05-10T00:22:23;96118.19;;;12.78;100.00
28927;BME280;16038;47.692;9.400;2023-05-10T00:24:48;96117.78;;;12.80;100.00
28927;BME280;16038;47.692;9.400;2023-05-10T00:27:13;96117.00;;;12.83;100.00
28927;BME280;16038;47.692;9.400;2023-05-10T00:29:41;96117.41;;;12.71;100.00
28927;BME280;16038;47.692;9.400;2023-05-10T00:32:07;96119.75;;;12.76;100.00
28927;BME280;16038;47.692;9.400;2023-05-10T00:34:32;96117.00;;;12.69;100.00
28927;BME280;16038;47.692;9.400;2023-05-10T00:36:57;96120.16;;;12.60;100.00
28927;BME280;16038;47.692;9.400;2023-05-10T00:39:23;96118.59;;;12.59;100.00
28927;BME280;16038;47.692;9.400;2023-05-10T00:41:48;96119.38;;;12.56;100.00
28927;BME280;16038;47.692;9.400;2023-05-10T00:44:13;96119.38;;;12.45;100.00
28927;BME280;16038;47.692;9.400;2023-05-10T00:46:38;96130.75;;;12.43;100.00
28927;BME280;16038;47.692;9.400;2023-05-10T00:49:04;96112.72;;;12.32;100.00
28927;BME280;16038;47.692;9.400;2023-05-10T00:51:29;96131.16;;;12.46;100.00
28927;BME280;16038;47.692;9.400;2023-05-10T00:53:56;96126.06;;;12.40;100.00
28927;BME280;16038;47.692;9.400;2023-05-10T00:56:21;96123.31;;;12.37;100.00
28927;BME280;16038;47.692;9.400;2023-05-10T00:58:48;96112.72;;;12.32;100.00
28927;BME280;16038;47.692;9.400;2023-05-10T01:01:13;96122.13;;;12.20;100.00
28927;BME280;16038;47.692;9.400;2023-05-10T01:03:39;96133.88;;;12.24;100.00
28927;BME280;16038;47.692;9.400;2023-05-10T01:06:05;96134.69;;;12.21;100.00
28927;BME280;16038;47.692;9.400;2023-05-10T01:08:30;96139.38;;;12.20;100.00
28927;BME280;16038;47.692;9.400;2023-05-10T01:10:56;96144.88;;;12.17;100.00
28927;BME280;16038;47.692;9.400;2023-05-10T01:13:30;96133.13;;;12.23;100.00
28927;BME280;16038;47.692;9.400;2023-05-10T01:15:56;96135.88;;;12.27;100.00
28927;BME280;16038;47.692;9.400;2023-05-10T01:18:22;96145.25;;;12.12;100.00
28927;BME280;16038;47.692;9.400;2023-05-10T01:20:49;96142.50;;;12.08;100.00
28927;BME280;16038;47.692;9.400;2023-05-10T01:23:22;96145.66;;;12.14;100.00
28927;BME280;16038;47.692;9.400;2023-05-10T01:26:16;96153.09;;;12.20;100.00
28927;BME280;16038;47.692;9.400;2023-05-10T01:34:09;96155.06;;;12.05;100.00
28927;BME280;16038;47.692;9.400;2023-05-10T01:36:38;96156.63;;;12.03;100.00
28927;BME280;16038;47.692;9.400;2023-05-10T01:39:07;96156.63;;;11.99;100.00
28927;BME280;16038;47.692;9.400;2023-05-10T01:44:40;96173.03;;;11.89;100.00
28927;BME280;16038;47.692;9.400;2023-05-10T01:47:09;96171.50;;;11.95;100.00
28927;BME280;16038;47.692;9.400;2023-05-10T01:49:56;96172.22;;;11.88;100.00
28927;BME280;16038;47.692;9.400;2023-05-10T01:52:30;96176.13;;;11.80;100.00
28927;BME280;16038;47.692;9.400;2023-05-10T01:55:01;96175.75;;;11.85;100.00
28927;BME280;16038;47.692;9.400;2023-05-10T01:57:29;96184.38;;;11.83;100.00
28927;BME280;16038;47.692;9.400;2023-05-10T01:59:55;96189.47;;;11.85;100.00
28927;BME280;16038;47.692;9.400;2023-05-10T02:02:21;96184.44;;;11.91;100.00
28927;BME280;16038;47.692;9.400;2023-05-10T02:04:48;96188.69;;;11.88;100.00
28927;BME280;16038;47.692;9.400;2023-05-10T02:07:14;96187.19;;;11.94;100.00
28927;BME280;16038;47.692;9.400;2023-05-10T02:09:41;96189.88;;;11.83;100.00
28927;BME280;16038;47.692;9.400;2023-05-10T02:12:09;96195.75;;;11.85;100.00
28927;BME280;16038;47.692;9.400;2023-05-10T02:14:35;96185.53;;;11.79;100.00
28927;BME280;16038;47.692;9.400;2023-05-10T02:17:01;96194.97;;;11.81;100.00
28927;BME280;16038;47.692;9.400;2023-05-10T02:19:27;96191.84;;;11.83;100.00
28927;BME280;16038;47.692;9.400;2023-05-10T02:21:53;96189.09;;;11.79;100.00
28927;BME280;16038;47.692;9.400;2023-05-10T02:24:20;96187.88;;;11.80;100.00
28927;BME280;16038;47.692;9.400;2023-05-10T02:26:46;96204.34;;;11.80;100.00
28927;BME280;16038;47.692;9.400;2023-05-10T02:29:13;96197.69;;;11.78;100.00
28927;BME280;16038;47.692;9.400;2023-05-10T02:31:39;96202.78;;;11.72;100.00
28927;BME280;16038;47.692;9.400;2023-05-10T02:34:05;96201.63;;;11.84;100.00
28927;BME280;16038;47.692;9.400;2023-05-10T02:36:32;96197.72;;;11.89;100.00
28927;BME280;16038;47.692;9.400;2023-05-10T02:38:58;96205.13;;;11.77;100.00
28927;BME280;16038;47.692;9.400;2023-05-10T02:41:26;96203.16;;;11.71;100.00
28927;BME280;16038;47.692;9.400;2023-05-10T02:43:52;96205.03;;;11.59;100.00
28927;BME280;16038;47.692;9.400;2023-05-10T02:46:20;96202.34;;;11.66;100.00
28927;BME280;16038;47.692;9.400;2023-05-10T02:48:46;96201.16;;;11.64;100.00
28927;BME280;16038;47.692;9.400;2023-05-10T02:51:11;96198.03;;;11.65;100.00
28927;BME280;16038;47.692;9.400;2023-05-10T02:53:40;96207.00;;;11.55;100.00
28927;BME280;16038;47.692;9.400;2023-05-10T02:56:10;96205.47;;;11.61;100.00
28927;BME280;16038;47.692;9.400;2023-05-10T02:58:37;96207.00;;;11.55;100.00
28927;BME280;16038;47.692;9.400;2023-05-10T03:01:02;96203.53;;;11.73;100.00
28927;BME280;16038;47.692;9.400;2023-05-10T03:03:27;96204.31;;;11.70;100.00
28927;BME280;16038;47.692;9.400;2023-05-10T03:05:53;96213.72;;;11.65;100.00
28927;BME280;16038;47.692;9.400;2023-05-10T03:08:21;96201.53;;;11.59;100.00
28927;BME280;16038;47.692;9.400;2023-05-10T03:13:44;96204.69;;;11.68;100.00
28927;BME280;16038;47.692;9.400;2023-05-10T03:16:19;96207.00;;;11.59;100.00
28927;BME280;16038;47.692;9.400;2023-05-10T03:18:48;96215.28;;;11.70;100.00
28927;BME280;16038;47.692;9.400;2023-05-10T03:21:16;96210.59;;;11.74;100.00
28927;BME280;16038;47.692;9.400;2023-05-10T03:26:08;96213.09;;;12.08;100.00
28927;BME280;16038;47.692;9.400;2023-05-10T03:28:36;96210.63;;;11.88;100.00
28927;BME280;16038;47.692;9.400;2023-05-10T03:31:02;96212.59;;;11.84;100.00
28927;BME280;16038;47.692;9.400;2023-05-10T03:33:27;96214.94;;;11.82;100.00
28927;BME280;16038;47.692;9.400;2023-05-10T03:35:53;96219.34;;;12.01;100.00
28927;BME280;16038;47.692;9.400;2023-05-10T03:38:18;96216.53;;;11.83;100.00
28927;BME280;16038;47.692;9.400;2023-05-10T03:40:43;96215.31;;;11.80;100.00
28927;BME280;16038;47.692;9.400;2023-05-10T03:43:09;96215.75;;;11.90;100.00
28927;BME280;16038;47.692;9.400;2023-05-10T03:45:34;96214.56;;;11.87;100.00
28927;BME280;16038;47.692;9.400;2023-05-10T03:47:59;96225.63;;;12.01;100.00
28927;BME280;16038;47.692;9.400;2023-05-10T03:50:25;96223.66;;;11.98;100.00
28927;BME280;16038;47.692;9.400;2023-05-10T03:52:51;96221.28;;;11.97;100.00
28927;BME280;16038;47.692;9.400;2023-05-10T03:55:16;96224.78;;;11.90;100.00
28927;BME280;16038;47.692;9.400;2023-05-10T03:57:41;96222.41;;;11.81;100.00
28927;BME280;16038;47.692;9.400;2023-05-10T04:00:07;96226.69;;;11.82;100.00
28927;BME280;16038;47.692;9.400;2023-05-10T04:02:33;96223.97;;;11.86;100.00
28927;BME280;16038;47.692;9.400;2023-05-10T04:04:58;96224.84;;;12.04;100.00
28927;BME280;16038;47.692;9.400;2023-05-10T04:07:23;96221.31;;;12.04;100.00
28927;BME280;16038;47.692;9.400;2023-05-10T04:09:49;96220.59;;;12.25;100.00
28927;BME280;16038;47.692;9.400;2023-05-10T04:12:14;96229.63;;;12.33;100.00
28927;BME280;16038;47.692;9.400;2023-05-10T04:14:39;96232.38;;;12.36;100.00
28927;BME280;16038;47.692;9.400;2023-05-10T04:17:04;96232.75;;;12.38;100.00
28927;BME280;16038;47.692;9.400;2023-05-10T04:19:30;96236.72;;;12.45;100.00
28927;BME280;16038;47.692;9.400;2023-05-10T04:21:56;96238.22;;;12.17;100.00
28927;BME280;16038;47.692;9.400;2023-05-10T04:24:21;96242.19;;;12.30;100.00
28927;BME280;16038;47.692;9.400;2023-05-10T04:26:46;96243.34;;;12.26;100.00
28927;BME280;16038;47.692;9.400;2023-05-10T04:29:12;96236.25;;;12.14;100.00
28927;BME280;16038;47.692;9.400;2023-05-10T04:31:37;96235.81;;;12.08;100.00
28927;BME280;16038;47.692;9.400;2023-05-10T04:34:02;96238.16;;;12.02;100.00
28927;BME280;16038;47.692;9.400;2023-05-10T04:36:28;96233.88;;;12.05;100.00
28927;BME280;16038;47.692;9.400;2023-05-10T04:38:54;96234.28;;;12.11;100.00
28927;BME280;16038;47.692;9.400;2023-05-10T04:41:19;96235.03;;;12.04;100.00
28927;BME280;16038;47.692;9.400;2023-05-10T04:43:45;96238.16;;;11.99;100.00
28927;BME280;16038;47.692;9.400;2023-05-10T04:46:11;96229.53;;;11.97;100.00
28927;BME280;16038;47.692;9.400;2023-05-10T04:48:36;96231.50;;;12.00;100.00
28927;BME280;16038;47.692;9.400;2023-05-10T04:51:01;96229.16;;;12.02;100.00
28927;BME280;16038;47.692;9.400;2023-05-10T04:53:28;96231.88;;;11.98;100.00
28927;BME280;16038;47.692;9.400;2023-05-10T04:55:54;96242.13;;;12.09;100.00
28927;BME280;16038;47.692;9.400;2023-05-10T04:58:19;96239.41;;;12.16;100.00
28927;BME280;16038;47.692;9.400;2023-05-10T05:00:44;96237.09;;;12.36;100.00
28927;BME280;16038;47.692;9.400;2023-05-10T05:03:09;96238.63;;;12.37;100.00
28927;BME280;16038;47.692;9.400;2023-05-10T05:05:35;96240.25;;;12.49;100.00
28927;BME280;16038;47.692;9.400;2023-05-10T05:08:00;96250.03;;;12.39;100.00
28927;BME280;16038;47.692;9.400;2023-05-10T05:10:25;96252.38;;;12.48;100.00
28927;BME280;16038;47.692;9.400;2023-05-10T05:12:51;96247.34;;;12.60;100.00
28927;BME280;16038;47.692;9.400;2023-05-10T05:15:16;96243.00;;;12.70;100.00
28927;BME280;16038;47.692;9.400;2023-05-10T05:17:42;96248.50;;;12.70;100.00
28927;BME280;16038;47.692;9.400;2023-05-10T05:20:07;96253.22;;;12.66;100.00
28927;BME280;16038;47.692;9.400;2023-05-10T05:22:33;96248.50;;;12.52;100.00
28927;BME280;16038;47.692;9.400;2023-05-10T05:24:58;96253.22;;;12.66;100.00
28927;BME280;16038;47.692;9.400;2023-05-10T05:27:24;96257.13;;;12.72;100.00
28927;BME280;16038;47.692;9.400;2023-05-10T05:29:55;96265.00;;;12.74;100.00
28927;BME280;16038;47.692;9.400;2023-05-10T05:32:20;96268.91;;;12.87;100.00
28927;BME280;16038;47.692;9.400;2023-05-10T05:34:46;96268.16;;;12.90;100.00
28927;BME280;16038;47.692;9.400;2023-05-10T05:37:15;96264.22;;;13.06;100.00
28927;BME280;16038;47.692;9.400;2023-05-10T05:39:40;96266.97;;;13.09;100.00
28927;BME280;16038;47.692;9.400;2023-05-10T05:42:06;96272.88;;;13.04;100.00
28927;BME280;16038;47.692;9.400;2023-05-10T05:44:31;96270.13;;;13.15;100.00
28927;BME280;16038;47.692;9.400;2023-05-10T05:46:56;96279.13;;;13.26;100.00
28927;BME280;16038;47.692;9.400;2023-05-10T05:49:22;96281.13;;;13.40;100.00
28927;BME280;16038;47.692;9.400;2023-05-10T05:51:47;96288.56;;;13.39;100.00
28927;BME280;16038;47.692;9.400;2023-05-10T05:54:14;96287.78;;;13.35;100.00
28927;BME280;16038;47.692;9.400;2023-05-10T05:56:39;96294.88;;;13.40;100.00
28927;BME280;16038;47.692;9.400;2023-05-10T05:59:05;96291.75;;;13.34;100.00
28927;BME280;16038;47.692;9.400;2023-05-10T06:01:31;96298.78;;;13.21;100.00
28927;BME280;16038;47.692;9.400;2023-05-10T06:03:56;96297.22;;;13.13;100.00
28927;BME280;16038;47.692;9.400;2023-05-10T06:06:21;96298.38;;;13.12;100.00
28927;BME280;16038;47.692;9.400;2023-05-10T06:08:47;96301.16;;;13.33;100.00
28927;BME280;16038;47.692;9.400;2023-05-10T06:11:12;96305.88;;;13.36;100.00
28927;BME280;16038;47.692;9.400;2023-05-10T06:13:37;96311.00;;;13.34;100.00
28927;BME280;16038;47.692;9.400;2023-05-10T06:16:03;96309.41;;;13.37;100.00
28927;BME280;16038;47.692;9.400;2023-05-10T06:18:28;96311.38;;;13.40;100.00
28927;BME280;16038;47.692;9.400;2023-05-10T06:20:54;96314.13;;;13.51;100.00
28927;BME280;16038;47.692;9.400;2023-05-10T06:23:19;96312.13;;;13.23;100.00
28927;BME280;16038;47.692;9.400;2023-05-10T06:25:44;96318.81;;;13.04;100.00
28927;BME280;16038;47.692;9.400;2023-05-10T06:28:09;96317.63;;;13.15;100.00
28927;BME280;16038;47.692;9.400;2023-05-10T06:30:35;96315.66;;;13.09;100.00
28927;BME280;16038;47.692;9.400;2023-05-10T06:33:01;96318.41;;;13.09;100.00
28927;BME280;16038;47.692;9.400;2023-05-10T06:35:26;96324.69;;;12.88;100.00
28927;BME280;16038;47.692;9.400;2023-05-10T06:37:51;96318.41;;;13.05;100.00
28927;BME280;16038;47.692;9.400;2023-05-10T06:40:16;96336.44;;;12.77;100.00
28927;BME280;16038;47.692;9.400;2023-05-10T06:42:42;96330.19;;;12.88;100.00
28927;BME280;16038;47.692;9.400;2023-05-10T06:45:07;96333.72;;;12.81;100.00
28927;BME280;16038;47.692;9.400;2023-05-10T06:47:33;96333.69;;;12.77;100.00
28927;BME280;16038;47.692;9.400;2023-05-10T06:49:58;96342.34;;;12.94;100.00
28927;BME280;16038;47.692;9.400;2023-05-10T06:52:24;96333.34;;;12.90;100.00
28927;BME280;16038;47.692;9.400;2023-05-10T06:54:49;96337.66;;;13.05;100.00
28927;BME280;16038;47.692;9.400;2023-05-10T06:57:15;96341.59;;;13.18;100.00
28927;BME280;16038;47.692;9.400;2023-05-10T06:59:40;96338.47;;;13.16;100.00
28927;BME280;16038;47.692;9.400;2023-05-10T07:02:05;96340.41;;;13.23;100.00
28927;BME280;16038;47.692;9.400;2023-05-10T07:04:31;96332.16;;;13.23;100.00
28927;BME280;16038;47.692;9.400;2023-05-10T07:06:56;96336.09;;;13.29;100.00
28927;BME280;16038;47.692;9.400;2023-05-10T07:09:22;96336.91;;;13.41;100.00
28927;BME280;16038;47.692;9.400;2023-05-10T07:11:49;96339.66;;;13.55;100.00
28927;BME280;16038;47.692;9.400;2023-05-10T07:14:14;96345.13;;;13.66;100.00
28927;BME280;16038;47.692;9.400;2023-05-10T07:16:40;96343.97;;;13.63;100.00
28927;BME280;16038;47.692;9.400;2023-05-10T07:19:05;96347.47;;;13.85;100.00
28927;BME280;16038;47.692;9.400;2023-05-10T07:21:31;96346.69;;;13.81;100.00
28927;BME280;16038;47.692;9.400;2023-05-10T07:23:57;96353.41;;;13.62;100.00
28927;BME280;16038;47.692;9.400;2023-05-10T07:26:22;96348.28;;;13.71;100.00
28927;BME280;16038;47.692;9.400;2023-05-10T07:28:48;96345.09;;;13.84;100.00
28927;BME280;16038;47.692;9.400;2023-05-10T07:31:13;96345.16;;;13.44;100.00
28927;BME280;16038;47.692;9.400;2023-05-10T07:33:38;96351.44;;;13.45;100.00
28927;BME280;16038;47.692;9.400;2023-05-10T07:36:03;96355.38;;;13.44;100.00
28927;BME280;16038;47.692;9.400;2023-05-10T07:38:29;96357.72;;;13.63;100.00
28927;BME280;16038;47.692;9.400;2023-05-10T07:40:54;96364.41;;;13.66;100.00
28927;BME280;16038;47.692;9.400;2023-05-10T07:43:19;96367.53;;;13.68;100.00
28927;BME280;16038;47.692;9.400;2023-05-10T07:45:45;96355.38;;;13.62;100.00
28927;BME280;16038;47.692;9.400;2023-05-10T07:48:10;96357.34;;;13.36;100.00
28927;BME280;16038;47.692;9.400;2023-05-10T07:50:36;96360.50;;;13.42;100.00
28927;BME280;16038;47.692;9.400;2023-05-10T07:53:01;96361.66;;;13.58;100.00
28927;BME280;16038;47.692;9.400;2023-05-10T07:55:26;96353.78;;;13.61;100.00
28927;BME280;16038;47.692;9.400;2023-05-10T07:57:51;96364.03;;;13.38;100.00
28927;BME280;16038;47.692;9.400;2023-05-10T08:00:18;96358.13;;;13.44;100.00
28927;BME280;16038;47.692;9.400;2023-05-10T08:02:46;96357.75;;;13.42;100.00
28927;BME280;16038;47.692;9.400;2023-05-10T08:05:12;96356.56;;;13.50;100.00
28927;BME280;16038;47.692;9.400;2023-05-10T08:07:37;96362.00;;;13.82;100.00
28927;BME280;16038;47.692;9.400;2023-05-10T08:10:03;96355.38;;;13.51;100.00
28927;BME280;16038;47.692;9.400;2023-05-10T08:12:28;96363.25;;;13.52;100.00
28927;BME280;16038;47.692;9.400;2023-05-10T08:14:53;96365.19;;;13.41;100.00
28927;BME280;16038;47.692;9.400;2023-05-10T08:17:19;96359.66;;;13.70;100.00
28927;BME280;16038;47.692;9.400;2023-05-10T08:19:44;96366.69;;;14.07;100.00
28927;BME280;16038;47.692;9.400;2023-05-10T08:22:09;96370.63;;;13.99;100.00
28927;BME280;16038;47.692;9.400;2023-05-10T08:24:35;96367.84;;;14.06;100.00
28927;BME280;16038;47.692;9.400;2023-05-10T08:27:04;96369.47;;;13.96;100.00
28927;BME280;16038;47.692;9.400;2023-05-10T08:29:29;96374.09;;;14.31;100.00
28927;BME280;16038;47.692;9.400;2023-05-10T08:31:55;96376.81;;;14.39;100.00
28927;BME280;16038;47.692;9.400;2023-05-10T08:34:20;96369.06;;;14.01;100.00
28927;BME280;16038;47.692;9.400;2023-05-10T08:36:45;96372.97;;;14.04;100.00
28927;BME280;16038;47.692;9.400;2023-05-10T08:39:10;96359.25;;;13.93;100.00
28927;BME280;16038;47.692;9.400;2023-05-10T08:41:36;96372.63;;;13.84;100.00
28927;BME280;16038;47.692;9.400;2023-05-10T08:44:04;96376.94;;;14.06;100.00
28927;BME280;16038;47.692;9.400;2023-05-10T08:46:30;96370.16;;;14.25;100.00
28927;BME280;16038;47.692;9.400;2023-05-10T08:48:57;96373.19;;;14.56;100.00
28927;BME280;16038;47.692;9.400;2023-05-10T08:51:25;96367.63;;;14.74;100.00
28927;BME280;16038;47.692;9.400;2023-05-10T08:53:52;96381.59;;;15.08;100.00
28927;BME280;16038;47.692;9.400;2023-05-10T08:56:17;96371.09;;;15.45;99.98
28927;BME280;16038;47.692;9.400;2023-05-10T08:58:43;96383.31;;;14.84;100.00
28927;BME280;16038;47.692;9.400;2023-05-10T09:01:08;96378.34;;;14.58;100.00
28927;BME280;16038;47.692;9.400;2023-05-10T09:03:35;96383.41;;;14.70;100.00
28927;BME280;16038;47.692;9.400;2023-05-10T09:06:00;96388.44;;;14.89;100.00
28927;BME280;16038;47.692;9.400;2023-05-10T09:08:25;96381.97;;;15.10;100.00
28927;BME280;16038;47.692;9.400;2023-05-10T09:10:51;96377.50;;;15.35;98.67
28927;BME280;16038;47.692;9.400;2023-05-10T09:13:17;96387.94;;;15.61;97.45
28927;BME280;16038;47.692;9.400;2023-05-10T09:15:43;96387.53;;;15.63;100.00
28927;BME280;16038;47.692;9.400;2023-05-10T09:18:08;96379.94;;;15.74;97.09
28927;BME280;16038;47.692;9.400;2023-05-10T09:20:34;96383.91;;;15.70;96.58
28927;BME280;16038;47.692;9.400;2023-05-10T09:22:59;96382.16;;;15.45;97.23
28927;BME280;16038;47.692;9.400;2023-05-10T09:25:25;96389.59;;;15.48;97.52
28927;BME280;16038;47.692;9.400;2023-05-10T09:27:50;96378.84;;;15.61;96.08
28927;BME280;16038;47.692;9.400;2023-05-10T09:30:16;96375.16;;;15.29;95.18
28927;BME280;16038;47.692;9.400;2023-05-10T09:32:43;96375.00;;;15.51;97.04
28927;BME280;16038;47.692;9.400;2023-05-10T09:35:16;96374.88;;;16.07;92.24
28927;BME280;16038;47.692;9.400;2023-05-10T09:37:42;96380.47;;;16.38;91.54
28927;BME280;16038;47.692;9.400;2023-05-10T09:40:08;96388.81;;;16.34;88.79
28927;BME280;16038;47.692;9.400;2023-05-10T09:42:36;96381.06;;;16.18;87.67
28927;BME280;16038;47.692;9.400;2023-05-10T09:45:02;96381.16;;;16.46;86.88
28927;BME280;16038;47.692;9.400;2023-05-10T09:47:28;96382.81;;;16.39;86.90
28927;BME280;16038;47.692;9.400;2023-05-10T09:49:53;96385.81;;;17.14;83.39
28927;BME280;16038;47.692;9.400;2023-05-10T09:52:22;96374.09;;;16.44;83.53
28927;BME280;16038;47.692;9.400;2023-05-10T09:54:54;96388.97;;;16.54;85.33
28927;BME280;16038;47.692;9.400;2023-05-10T09:57:20;96386.75;;;17.07;82.72
28927;BME280;16038;47.692;9.400;2023-05-10T09:59:46;96380.81;;;16.74;83.25
28927;BME280;16038;47.692;9.400;2023-05-10T10:02:12;96391.47;;;16.41;82.42
28927;BME280;16038;47.692;9.400;2023-05-10T10:04:40;96385.91;;;16.11;86.00
28927;BME280;16038;47.692;9.400;2023-05-10T10:07:06;96380.00;;;15.63;87.41
28927;BME280;16038;47.692;9.400;2023-05-10T10:09:32;96391.59;;;15.44;90.42
28927;BME280;16038;47.692;9.400;2023-05-10T10:11:57;96390.31;;;15.59;88.78
28927;BME280;16038;47.692;9.400;2023-05-10T10:14:23;96398.59;;;16.04;87.21
28927;BME280;16038;47.692;9.400;2023-05-10T10:16:49;96393.41;;;15.65;89.74
28927;BME280;16038;47.692;9.400;2023-05-10T10:19:15;96399.50;;;16.32;85.46
28927;BME280;16038;47.692;9.400;2023-05-10T10:21:40;96400.53;;;16.08;85.10
28927;BME280;16038;47.692;9.400;2023-05-10T10:24:05;96394.91;;;15.77;84.58
28927;BME280;16038;47.692;9.400;2023-05-10T10:26:33;96391.53;;;15.55;84.01
28927;BME280;16038;47.692;9.400;2023-05-10T10:29:03;96388.56;;;15.80;83.13
28927;BME280;16038;47.692;9.400;2023-05-10T10:31:41;96391.47;;;15.62;82.98
28927;BME280;16038;47.692;9.400;2023-05-10T10:34:10;96384.91;;;15.94;81.42
28927;BME280;16038;47.692;9.400;2023-05-10T10:36:47;96392.72;;;15.99;77.45
28927;BME280;16038;47.692;9.400;2023-05-10T10:39:12;96392.09;;;15.80;78.38
28927;BME280;16038;47.692;9.400;2023-05-10T10:41:39;96392.22;;;15.66;78.62
28927;BME280;16038;47.692;9.400;2023-05-10T10:47:07;96388.41;;;15.98;78.17
28927;BME280;16038;47.692;9.400;2023-05-10T10:54:51;96389.03;;;16.13;73.98
28927;BME280;16038;47.692;9.400;2023-05-10T10:57:17;96386.22;;;15.78;77.88
28927;BME280;16038;47.692;9.400;2023-05-10T10:59:43;96383.88;;;16.15;77.19
28927;BME280;16038;47.692;9.400;2023-05-10T11:02:09;96386.69;;;16.46;75.94
28927;BME280;16038;47.692;9.400;2023-05-10T11:04:44;96393.22;;;16.62;73.93
28927;BME280;16038;47.692;9.400;2023-05-10T11:07:17;96389.03;;;16.47;75.05
28927;BME280;16038;47.692;9.400;2023-05-10T11:09:43;96386.13;;;16.92;73.95
28927;BME280;16038;47.692;9.400;2023-05-10T11:12:08;96391.97;;;16.67;71.99
28927;BME280;16038;47.692;9.400;2023-05-10T11:14:34;96396.09;;;16.52;71.04
28927;BME280;16038;47.692;9.400;2023-05-10T11:16:59;96399.28;;;16.81;71.97
28927;BME280;16038;47.692;9.400;2023-05-10T11:19:27;96398.09;;;16.82;70.28
28927;BME280;16038;47.692;9.400;2023-05-10T11:24:30;96398.00;;;16.58;66.48
28927;BME280;16038;47.692;9.400;2023-05-10T11:26:55;96388.31;;;16.43;69.28
28927;BME280;16038;47.692;9.400;2023-05-10T11:29:21;96396.72;;;16.32;70.49
28927;BME280;16038;47.692;9.400;2023-05-10T11:31:46;96392.84;;;16.26;69.48
28927;BME280;16038;47.692;9.400;2023-05-10T11:34:25;96398.59;;;16.42;70.89
28927;BME280;16038;47.692;9.400;2023-05-10T11:36:51;96396.84;;;16.21;66.88
28927;BME280;16038;47.692;9.400;2023-05-10T11:39:16;96398.16;;;16.06;70.06
28927;BME280;16038;47.692;9.400;2023-05-10T11:41:42;96394.06;;;16.21;70.91
28927;BME280;16038;47.692;9.400;2023-05-10T11:44:08;96387.81;;;16.17;72.44
28927;BME280;16038;47.692;9.400;2023-05-10T11:46:34;96397.94;;;16.28;69.77
28927;BME280;16038;47.692;9.400;2023-05-10T11:49:01;96397.78;;;16.42;69.30
28927;BME280;16038;47.692;9.400;2023-05-10T11:51:29;96389.25;;;16.29;66.93
28927;BME280;16038;47.692;9.400;2023-05-10T11:53:55;96402.03;;;16.16;66.38
28927;BME280;16038;47.692;9.400;2023-05-10T11:56:21;96405.53;;;16.20;64.01
28927;BME280;16038;47.692;9.400;2023-05-10T11:58:52;96411.63;;;16.04;64.23
28927;BME280;16038;47.692;9.400;2023-05-10T12:01:17;96407.38;;;16.34;64.77
28927;BME280;16038;47.692;9.400;2023-05-10T12:03:42;96404.66;;;16.30;64.22
28927;BME280;16038;47.692;9.400;2023-05-10T12:06:08;96415.28;;;15.94;66.44
28927;BME280;16038;47.692;9.400;2023-05-10T12:08:34;96408.41;;;16.09;66.08
28927;BME280;16038;47.692;9.400;2023-05-10T12:11:06;96401.81;;;15.99;66.41
28927;BME280;16038;47.692;9.400;2023-05-10T12:13:31;96408.03;;;16.45;64.62
28927;BME280;16038;47.692;9.400;2023-05-10T12:15:57;96409.84;;;16.59;64.64
28927;BME280;16038;47.692;9.400;2023-05-10T12:18:23;96403.31;;;16.04;64.35
28927;BME280;16038;47.692;9.400;2023-05-10T12:20:51;96410.59;;;16.63;64.43
28927;BME280;16038;47.692;9.400;2023-05-10T12:23:17;96398.69;;;16.35;65.00
28927;BME280;16038;47.692;9.400;2023-05-10T12:25:42;96412.16;;;16.30;65.53
28927;BME280;16038;47.692;9.400;2023-05-10T12:28:08;96414.03;;;16.36;64.60
28927;BME280;16038;47.692;9.400;2023-05-10T12:30:34;96416.75;;;16.40;65.24
28927;BME280;16038;47.692;9.400;2023-05-10T12:33:10;96415.09;;;16.50;64.92
28927;BME280;16038;47.692;9.400;2023-05-10T12:38:25;96413.59;;;16.41;63.45
28927;BME280;16038;47.692;9.400;2023-05-10T12:40:51;96403.44;;;16.31;64.44
28927;BME280;16038;47.692;9.400;2023-05-10T12:43:17;96407.38;;;16.34;63.98
28927;BME280;16038;47.692;9.400;2023-05-10T12:45:42;96412.38;;;16.46;64.78
28927;BME280;16038;47.692;9.400;2023-05-10T12:48:12;96408.19;;;16.65;64.44
28927;BME280;16038;47.692;9.400;2023-05-10T12:50:38;96417.97;;;16.01;64.58
28927;BME280;16038;47.692;9.400;2023-05-10T12:53:03;96420.56;;;16.19;64.95
28927;BME280;16038;47.692;9.400;2023-05-10T12:55:28;96415.41;;;16.55;65.40
28927;BME280;16038;47.692;9.400;2023-05-10T12:57:53;96419.84;;;16.46;65.16
28927;BME280;16038;47.692;9.400;2023-05-10T13:00:19;96415.75;;;16.61;63.22
28927;BME280;16038;47.692;9.400;2023-05-10T13:02:44;96407.41;;;16.65;63.03
28927;BME280;16038;47.692;9.400;2023-05-10T13:05:09;96408.81;;;16.80;61.58
28927;BME280;16038;47.692;9.400;2023-05-10T13:07:35;96406.94;;;17.04;59.94
28927;BME280;16038;47.692;9.400;2023-05-10T13:10:00;96414.03;;;17.05;61.30
28927;BME280;16038;47.692;9.400;2023-05-10T13:12:25;96407.84;;;16.94;60.32
28927;BME280;16038;47.692;9.400;2023-05-10T13:14:51;96404.22;;;17.00;60.71